Time;durP1;ratioP1;P1;durP2;ratioP2;P2;SDS_P1;SDS_P2;PMS_P1;PMS_P2;Temp;Humidity;BMP_temperature;BMP_pressure;BME280_temperature;BME280_humidity;BME280_pressure;Samples;Min_cycle;Max_cycle;Signal;HPM_P1;HPM_P2
2023/03/04 00:01:03;;;;;;;4.45;0.90;;;5.80;99.90;;;;;;5061455;28;20034;-73
2023/03/04 00:03:30;;;;;;;3.55;0.65;;;5.80;99.90;;;;;;5041184;28;20045;-73
2023/03/04 00:05:55;;;;;;;3.88;0.52;;;5.80;99.90;;;;;;5027160;28;20563;-73
2023/03/04 00:08:21;;;;;;;1.48;0.40;;;5.80;99.90;;;;;;5043768;28;20046;-73
2023/03/04 00:10:46;;;;;;;8.05;0.52;;;5.80;99.90;;;;;;5037948;28;20037;-73
2023/03/04 00:13:12;;;;;;;1.95;0.20;;;5.80;99.90;;;;;;5024564;28;20038;-73
2023/03/04 00:15:38;;;;;;;0.52;0.40;;;5.80;99.90;;;;;;5028389;28;20045;-73
2023/03/04 00:18:03;;;;;;;7.43;0.77;;;5.80;99.90;;;;;;5027632;28;20045;-73
2023/03/04 00:20:29;;;;;;;1.60;0.50;;;5.80;99.90;;;;;;5059382;28;20029;-73
2023/03/04 00:22:54;;;;;;;1.23;0.55;;;5.80;99.90;;;;;;5009768;28;20048;-73
2023/03/04 00:25:20;;;;;;;3.70;0.70;;;5.80;99.90;;;;;;5026777;28;20041;-73
2023/03/04 00:27:46;;;;;;;3.35;0.47;;;5.80;99.90;;;;;;4982084;28;1182537;-73
2023/03/04 00:30:12;;;;;;;4.10;0.55;;;5.80;99.90;;;;;;5059982;28;20103;-73
2023/03/04 00:32:38;;;;;;;1.88;0.55;;;5.80;99.90;;;;;;5045055;28;20132;-73
2023/03/04 00:35:05;;;;;;;2.92;1.27;;;5.80;99.90;;;;;;5043627;28;20141;-73
2023/03/04 00:37:31;;;;;;;1.00;0.30;;;5.80;99.90;;;;;;5060289;28;20487;-73
2023/03/04 00:39:56;;;;;;;2.90;0.57;;;5.80;99.90;;;;;;5060432;28;20087;-73
2023/03/04 00:42:22;;;;;;;2.03;0.60;;;5.80;99.90;;;;;;5028523;28;20068;-73
2023/03/04 00:44:48;;;;;;;2.28;0.52;;;5.80;99.90;;;;;;5025724;28;20060;-73
2023/03/04 00:47:14;;;;;;;4.43;0.73;;;5.80;99.90;;;;;;5026891;28;20048;-73
2023/03/04 00:49:39;;;;;;;1.95;0.60;;;5.80;99.90;;;;;;5019679;28;20034;-73
2023/03/04 00:52:05;;;;;;;3.72;0.43;;;5.80;99.90;;;;;;5059449;28;20081;-73
2023/03/04 00:54:31;;;;;;;1.42;0.50;;;5.80;99.90;;;;;;5060844;28;20049;-73
2023/03/04 00:56:56;;;;;;;0.90;0.45;;;5.80;99.90;;;;;;5061404;28;20515;-73
2023/03/04 00:59:22;;;;;;;1.88;0.50;;;5.80;99.90;;;;;;5059354;28;20041;-73
2023/03/04 01:01:47;;;;;;;3.70;0.68;;;5.80;99.90;;;;;;5060225;28;20037;-73
2023/03/04 01:04:13;;;;;;;2.83;0.57;;;5.80;99.90;;;;;;5061048;28;20038;-73
2023/03/04 01:06:39;;;;;;;0.95;0.32;;;5.80;99.90;;;;;;5025282;28;20116;-73
2023/03/04 01:09:04;;;;;;;4.47;0.85;;;5.80;99.90;;;;;;5026634;28;20033;-73
2023/03/04 01:11:30;;;;;;;3.83;0.52;;;5.80;99.90;;;;;;5060309;28;20486;-73
2023/03/04 01:13:55;;;;;;;0.40;0.32;;;5.80;99.90;;;;;;5059079;28;20068;-73
2023/03/04 01:16:21;;;;;;;1.83;0.40;;;5.80;99.90;;;;;;5030768;28;20042;-73
2023/03/04 01:18:47;;;;;;;3.55;0.50;;;5.80;99.90;;;;;;5060462;28;20052;-73
2023/03/04 01:21:12;;;;;;;1.73;0.32;;;5.80;99.90;;;;;;5031811;28;20041;-73
2023/03/04 01:23:38;;;;;;;8.77;0.50;;;5.80;99.90;;;;;;5032398;28;20175;-73
2023/03/04 01:26:04;;;;;;;2.53;0.40;;;5.70;99.90;;;;;;5029266;28;20041;-73
2023/03/04 01:28:29;;;;;;;3.53;0.60;;;5.80;99.90;;;;;;5029325;28;20127;-73
2023/03/04 01:30:55;;;;;;;0.88;0.40;;;5.80;99.90;;;;;;5064954;28;20053;-73
2023/03/04 01:33:21;;;;;;;3.22;0.50;;;5.70;99.90;;;;;;5063616;28;20084;-73
2023/03/04 01:35:46;;;;;;;2.30;0.47;;;5.80;99.90;;;;;;5031434;28;20045;-72
2023/03/04 01:38:12;;;;;;;2.50;0.40;;;5.70;99.90;;;;;;5058082;28;20030;-73
2023/03/04 01:40:38;;;;;;;4.03;0.60;;;5.70;99.90;;;;;;5030423;28;20080;-73
2023/03/04 01:43:04;;;;;;;2.08;0.50;;;5.70;99.90;;;;;;5063352;28;20398;-73
2023/03/04 01:45:31;;;;;;;2.60;0.40;;;5.70;99.90;;;;;;5063007;28;20034;-73
2023/03/04 01:47:57;;;;;;;4.28;0.60;;;5.70;99.90;;;;;;5013955;28;20068;-73
2023/03/04 01:50:30;;;;;;;2.67;0.60;;;5.80;99.90;;;;;;5027627;28;20042;-73
2023/03/04 01:52:56;;;;;;;1.30;0.57;;;5.80;99.90;;;;;;5026091;28;20175;-73
2023/03/04 01:55:23;;;;;;;1.17;0.60;;;5.70;99.90;;;;;;5030016;28;20120;-73
2023/03/04 01:57:50;;;;;;;2.10;0.57;;;5.70;99.90;;;;;;5045043;28;20049;-73
2023/03/04 02:00:23;;;;;;;1.23;0.35;;;5.70;99.90;;;;;;5046006;28;20557;-73
2023/03/04 02:02:53;;;;;;;3.72;0.75;;;5.70;99.90;;;;;;5013400;28;20033;-73
2023/03/04 02:05:21;;;;;;;4.03;0.40;;;5.70;99.90;;;;;;5029741;28;20030;-73
2023/03/04 02:07:47;;;;;;;1.90;0.70;;;5.70;99.90;;;;;;5027564;28;20432;-73
2023/03/04 02:10:12;;;;;;;5.88;0.55;;;5.70;99.90;;;;;;5046009;28;20117;-73
2023/03/04 02:12:39;;;;;;;2.13;0.35;;;5.70;99.90;;;;;;5031026;28;20094;-73
2023/03/04 02:15:05;;;;;;;2.05;0.30;;;5.70;99.90;;;;;;5064484;28;20056;-73
2023/03/04 02:17:32;;;;;;;2.20;0.70;;;5.70;99.90;;;;;;5011197;28;20990;-73
2023/03/04 02:20:23;;;;;;;0.47;0.28;;;5.70;99.90;;;;;;5044858;28;20088;-74
2023/03/04 02:22:59;;;;;;;3.40;1.05;;;5.70;99.90;;;;;;5045166;28;21584;-73
2023/03/04 02:25:34;;;;;;;1.73;0.57;;;5.70;99.90;;;;;;5073357;28;20052;-73
2023/03/04 02:28:00;;;;;;;4.17;0.50;;;5.70;99.90;;;;;;5046943;28;20034;-73
2023/03/04 02:30:26;;;;;;;3.80;0.57;;;5.70;99.90;;;;;;5044273;28;20047;-73
2023/03/04 02:32:52;;;;;;;1.55;0.28;;;5.70;99.90;;;;;;5030203;28;20120;-73
2023/03/04 02:35:19;;;;;;;1.45;0.50;;;5.70;99.90;;;;;;5026832;28;20033;-73
2023/03/04 02:37:45;;;;;;;1.40;0.70;;;5.70;99.90;;;;;;5014168;28;20041;-73
2023/03/04 02:40:28;;;;;;;0.85;0.35;;;5.70;99.90;;;;;;5010361;28;20100;-73
2023/03/04 02:42:54;;;;;;;0.47;0.20;;;5.60;99.90;;;;;;5063813;28;20043;-73
2023/03/04 02:45:39;;;;;;;0.90;0.30;;;5.60;99.90;;;;;;5030162;28;20040;-73
2023/03/04 02:48:06;;;;;;;2.28;0.57;;;5.60;99.90;;;;;;5062869;28;20133;-73
2023/03/04 02:50:37;;;;;;;2.67;0.65;;;5.60;99.90;;;;;;5061334;28;20076;-73
2023/03/04 02:53:03;;;;;;;2.78;0.20;;;5.60;99.90;;;;;;5045629;28;20047;-72
2023/03/04 02:55:29;;;;;;;2.22;0.77;;;5.50;99.90;;;;;;5010314;28;20041;-73
2023/03/04 02:57:55;;;;;;;0.40;0.22;;;5.60;99.90;;;;;;5013926;28;20045;-73
2023/03/04 03:00:20;;;;;;;3.00;0.52;;;5.60;99.90;;;;;;5029899;28;20052;-73
2023/03/04 03:02:46;;;;;;;1.45;0.65;;;5.50;99.90;;;;;;5045543;28;20056;-73
2023/03/04 03:05:12;;;;;;;3.13;0.90;;;5.50;99.90;;;;;;5026681;28;20072;-73
2023/03/04 03:07:38;;;;;;;1.30;0.50;;;5.50;99.90;;;;;;5030014;28;20532;-73
2023/03/04 03:10:04;;;;;;;1.05;0.32;;;5.50;99.90;;;;;;5029168;28;20056;-73
2023/03/04 03:12:29;;;;;;;2.40;0.60;;;5.50;99.90;;;;;;5026833;28;20548;-73
2023/03/04 03:14:55;;;;;;;3.70;0.88;;;5.50;99.90;;;;;;5062096;28;20033;-73
2023/03/04 03:17:20;;;;;;;1.88;0.40;;;5.50;99.90;;;;;;5036315;28;20072;-73
2023/03/04 03:19:46;;;;;;;2.60;0.45;;;5.50;99.90;;;;;;5043127;28;20037;-73
2023/03/04 03:22:12;;;;;;;4.70;0.80;;;5.50;99.90;;;;;;5063352;28;20064;-73
2023/03/04 03:24:37;;;;;;;4.75;0.40;;;5.50;99.90;;;;;;5012213;28;20071;-73
2023/03/04 03:27:03;;;;;;;1.70;0.32;;;5.50;99.90;;;;;;5028135;28;20041;-73
2023/03/04 03:29:28;;;;;;;2.53;0.40;;;5.50;99.90;;;;;;5028377;28;20057;-73
2023/03/04 03:31:55;;;;;;;3.63;0.43;;;5.50;99.90;;;;;;5045230;28;20046;-73
2023/03/04 03:34:21;;;;;;;4.35;0.93;;;5.50;99.90;;;;;;5060995;28;20044;-73
2023/03/04 03:36:47;;;;;;;2.63;0.52;;;5.50;99.90;;;;;;5010258;28;20394;-73
2023/03/04 03:39:14;;;;;;;4.25;0.75;;;5.50;99.90;;;;;;5060212;28;20045;-73
2023/03/04 03:41:40;;;;;;;4.43;0.60;;;5.50;99.90;;;;;;5012624;28;20061;-73
2023/03/04 03:44:05;;;;;;;2.90;0.40;;;5.50;99.90;;;;;;5054358;28;20081;-73
2023/03/04 03:46:31;;;;;;;0.93;0.40;;;5.50;99.90;;;;;;5018543;28;20037;-73
2023/03/04 03:48:57;;;;;;;2.05;0.85;;;5.50;99.90;;;;;;5060755;28;20045;-73
2023/03/04 03:51:22;;;;;;;2.60;0.65;;;5.50;99.90;;;;;;5028803;28;20678;-73
2023/03/04 03:53:48;;;;;;;2.13;0.52;;;5.50;99.90;;;;;;5045805;28;20045;-73
2023/03/04 03:56:13;;;;;;;3.33;0.57;;;5.50;99.90;;;;;;5057554;28;20064;-73
2023/03/04 03:58:39;;;;;;;0.40;0.40;;;5.50;99.90;;;;;;5044665;28;20041;-73
2023/03/04 04:01:05;;;;;;;0.77;0.40;;;5.50;99.90;;;;;;5079143;28;20041;-73
2023/03/04 04:03:30;;;;;;;0.65;0.30;;;5.50;99.90;;;;;;5057504;28;20518;-73
2023/03/04 04:05:56;;;;;;;1.77;0.57;;;5.50;99.90;;;;;;5027395;28;20505;-73
2023/03/04 04:08:21;;;;;;;1.15;0.40;;;5.50;99.90;;;;;;5028910;28;20084;-73
2023/03/04 04:10:47;;;;;;;2.22;0.68;;;5.50;99.90;;;;;;5027573;28;20501;-73
2023/03/04 04:13:13;;;;;;;1.85;0.40;;;5.50;99.90;;;;;;5026949;28;20036;-73
2023/03/04 04:15:39;;;;;;;1.23;0.50;;;5.50;99.90;;;;;;5059421;28;20112;-73
2023/03/04 04:18:05;;;;;;;0.55;0.20;;;5.50;99.90;;;;;;5028855;28;20042;-73
2023/03/04 04:20:31;;;;;;;1.13;0.50;;;5.50;99.90;;;;;;5061713;28;20056;-73
2023/03/04 04:22:56;;;;;;;2.15;0.40;;;5.50;99.90;;;;;;5060416;28;20033;-73
2023/03/04 04:25:22;;;;;;;3.88;0.40;;;5.50;99.90;;;;;;5026132;28;20033;-73
2023/03/04 04:27:48;;;;;;;1.88;0.40;;;5.50;99.90;;;;;;5059392;28;20505;-73
2023/03/04 04:30:14;;;;;;;1.50;0.40;;;5.50;99.90;;;;;;5061719;28;20128;-73
2023/03/04 04:32:39;;;;;;;2.22;0.70;;;5.50;99.90;;;;;;5041722;28;20124;-73
2023/03/04 04:35:06;;;;;;;1.10;0.30;;;5.50;99.90;;;;;;5026419;28;20451;-73
2023/03/04 04:37:31;;;;;;;2.50;0.65;;;5.50;99.90;;;;;;5061831;28;20467;-73
2023/03/04 04:39:57;;;;;;;4.05;0.52;;;5.40;99.90;;;;;;5058430;28;20080;-73
2023/03/04 04:42:23;;;;;;;1.48;0.60;;;5.50;99.90;;;;;;5026544;28;20487;-73
2023/03/04 04:44:49;;;;;;;2.88;1.08;;;5.50;99.90;;;;;;5028303;28;20052;-73
2023/03/04 04:47:14;;;;;;;2.28;0.40;;;5.50;99.90;;;;;;5042269;28;20048;-73
2023/03/04 04:49:40;;;;;;;0.90;0.43;;;5.40;99.90;;;;;;5059668;28;20487;-73
2023/03/04 04:52:05;;;;;;;5.18;0.80;;;5.40;99.90;;;;;;5061761;28;20045;-73
2023/03/04 04:54:31;;;;;;;3.00;0.40;;;5.50;99.90;;;;;;5058828;28;20077;-73
2023/03/04 04:56:57;;;;;;;1.38;0.40;;;5.40;99.90;;;;;;5042171;28;20411;-73
2023/03/04 04:59:22;;;;;;;4.47;0.65;;;5.40;99.90;;;;;;5027030;28;20656;-73
2023/03/04 05:01:48;;;;;;;1.73;0.30;;;5.40;99.90;;;;;;5024965;28;20473;-73
2023/03/04 05:04:13;;;;;;;2.67;0.45;;;5.40;99.90;;;;;;5060365;28;20045;-73
2023/03/04 05:06:39;;;;;;;1.23;0.32;;;5.40;99.90;;;;;;5025033;28;20438;-73
2023/03/04 05:09:05;;;;;;;3.50;0.52;;;5.40;99.90;;;;;;5060560;28;20034;-73
2023/03/04 05:11:31;;;;;;;5.45;0.80;;;5.40;99.90;;;;;;5027004;28;20038;-73
2023/03/04 05:13:57;;;;;;;8.38;0.52;;;5.40;99.90;;;;;;5060126;28;20096;-73
2023/03/04 05:16:22;;;;;;;2.70;0.50;;;5.30;99.90;;;;;;5058966;28;20048;-73
2023/03/04 05:18:48;;;;;;;2.22;0.50;;;5.40;99.90;;;;;;5059845;28;20041;-73
2023/03/04 05:21:14;;;;;;;2.33;0.30;;;5.30;99.90;;;;;;5027121;28;20384;-73
2023/03/04 05:23:41;;;;;;;0.45;0.30;;;5.40;99.90;;;;;;5058399;28;20037;-73
2023/03/04 05:26:08;;;;;;;3.28;0.70;;;5.30;99.90;;;;;;5023971;28;20056;-73
2023/03/04 05:28:34;;;;;;;2.67;0.40;;;5.30;99.90;;;;;;5025773;28;20103;-73
2023/03/04 05:31:00;;;;;;;2.78;0.50;;;5.30;99.90;;;;;;5059226;28;20099;-73
2023/03/04 05:33:26;;;;;;;3.20;0.40;;;5.30;99.90;;;;;;5044429;28;20041;-73
2023/03/04 05:35:53;;;;;;;0.90;0.30;;;5.30;99.90;;;;;;5009378;28;20051;-73
2023/03/04 05:38:20;;;;;;;1.38;0.22;;;5.30;99.90;;;;;;5028002;28;20037;-73
2023/03/04 05:40:47;;;;;;;4.85;0.85;;;5.30;99.90;;;;;;5024443;28;20525;-73
2023/03/04 05:43:13;;;;;;;0.50;0.30;;;5.30;99.90;;;;;;5042773;28;20069;-73
2023/03/04 05:45:40;;;;;;;1.58;0.30;;;5.20;99.90;;;;;;5024746;28;20029;-73
2023/03/04 05:48:07;;;;;;;7.32;0.93;;;5.20;99.90;;;;;;5058481;28;20037;-73
2023/03/04 05:50:33;;;;;;;8.50;1.00;;;5.20;99.90;;;;;;5059254;28;20041;-73
2023/03/04 05:52:58;;;;;;;3.70;0.80;;;5.20;99.90;;;;;;5044233;28;20513;-73
2023/03/04 05:55:26;;;;;;;0.80;0.40;;;5.20;99.90;;;;;;5057441;28;20116;-73
2023/03/04 05:57:52;;;;;;;2.25;0.60;;;5.20;99.90;;;;;;5010410;28;20044;-73
2023/03/04 06:00:18;;;;;;;0.32;0.17;;;5.20;99.90;;;;;;5027550;28;20041;-73
2023/03/04 06:02:44;;;;;;;3.50;0.30;;;5.20;99.90;;;;;;5012371;28;20517;-73
2023/03/04 06:05:12;;;;;;;0.75;0.35;;;5.20;99.90;;;;;;5033710;28;20033;-73
2023/03/04 06:07:37;;;;;;;3.75;0.40;;;5.20;99.90;;;;;;5014924;28;20045;-73
2023/03/04 06:10:04;;;;;;;2.63;0.50;;;5.20;99.90;;;;;;5029810;28;20045;-73
2023/03/04 06:12:29;;;;;;;2.08;0.40;;;5.20;99.90;;;;;;5060911;28;20517;-73
2023/03/04 06:14:55;;;;;;;0.43;0.30;;;5.20;99.90;;;;;;5062087;28;20197;-73
2023/03/04 06:17:21;;;;;;;1.63;0.60;;;5.20;99.90;;;;;;5031685;28;20034;-73
2023/03/04 06:19:46;;;;;;;3.13;0.47;;;5.20;99.90;;;;;;5030756;28;20045;-73
2023/03/04 06:22:12;;;;;;;0.60;0.30;;;5.20;99.90;;;;;;5031336;28;20395;-73
2023/03/04 06:24:38;;;;;;;0.40;0.40;;;5.20;99.90;;;;;;5042707;28;20160;-73
2023/03/04 06:27:04;;;;;;;0.80;0.22;;;5.20;99.90;;;;;;5027962;28;20499;-73
2023/03/04 06:29:29;;;;;;;3.47;0.50;;;5.30;99.90;;;;;;5011742;28;20057;-73
2023/03/04 06:31:55;;;;;;;1.98;0.73;;;5.30;99.90;;;;;;5059472;28;20046;-73
2023/03/04 06:34:20;;;;;;;2.17;0.20;;;5.30;99.90;;;;;;5062243;28;20506;-73
2023/03/04 06:36:46;;;;;;;3.83;0.50;;;5.30;99.90;;;;;;5027417;28;20041;-73
2023/03/04 06:39:12;;;;;;;0.52;0.30;;;5.30;99.90;;;;;;5062585;28;20175;-73
2023/03/04 06:41:38;;;;;;;1.88;0.40;;;5.20;99.90;;;;;;5013577;28;20410;-73
2023/03/04 06:44:04;;;;;;;0.20;0.17;;;5.20;99.90;;;;;;5030315;28;20037;-73
2023/03/04 06:46:32;;;;;;;0.45;0.17;;;5.30;99.90;;;;;;5027879;28;20056;-73
2023/03/04 06:48:57;;;;;;;0.80;0.30;;;5.30;99.90;;;;;;5060187;28;20053;-73
2023/03/04 06:51:23;;;;;;;1.48;0.30;;;5.30;99.90;;;;;;5043428;28;20064;-73
2023/03/04 06:53:49;;;;;;;1.67;0.90;;;5.30;99.90;;;;;;5020904;28;20493;-73
2023/03/04 06:56:15;;;;;;;2.15;0.30;;;5.30;99.90;;;;;;5026235;28;20041;-73
2023/03/04 06:58:41;;;;;;;2.72;0.40;;;5.30;99.90;;;;;;5012757;28;20487;-73
2023/03/04 07:01:21;;;;;;;2.17;0.35;;;5.30;99.90;;;;;;5063061;28;20037;-73
2023/03/04 07:03:48;;;;;;;0.47;0.35;;;5.40;99.90;;;;;;5046690;28;20048;-73
2023/03/04 07:06:16;;;;;;;0.65;0.25;;;5.40;99.90;;;;;;5027406;28;20073;-73
2023/03/04 07:08:42;;;;;;;1.35;0.40;;;5.40;99.90;;;;;;5063797;28;20037;-73
2023/03/04 07:11:08;;;;;;;1.83;0.20;;;5.50;99.90;;;;;;5028398;28;20029;-73
2023/03/04 07:13:37;;;;;;;1.38;0.45;;;5.50;99.90;;;;;;5058439;28;20136;-73
2023/03/04 07:16:04;;;;;;;0.15;0.05;;;5.60;99.90;;;;;;5031926;28;20088;-73
2023/03/04 07:18:29;;;;;;;0.73;0.20;;;5.60;99.90;;;;;;5062916;28;20047;-73
2023/03/04 07:20:55;;;;;;;0.60;0.30;;;5.60;99.90;;;;;;4997973;28;20034;-73
2023/03/04 07:23:20;;;;;;;1.73;0.38;;;5.60;99.90;;;;;;5015977;28;20041;-73
2023/03/04 07:25:48;;;;;;;0.70;0.25;;;5.70;99.90;;;;;;5025951;28;20033;-73
2023/03/04 07:28:14;;;;;;;0.05;0.05;;;5.70;99.90;;;;;;5058871;28;20049;-73
2023/03/04 07:30:39;;;;;;;4.10;1.00;;;5.70;99.90;;;;;;5051945;28;20595;-73
2023/03/04 07:33:05;;;;;;;2.08;0.30;;;5.70;99.90;;;;;;5061164;28;20501;-74
2023/03/04 07:35:30;;;;;;;0.55;0.30;;;5.70;99.90;;;;;;5021733;28;20116;-73
2023/03/04 07:37:56;;;;;;;2.95;0.30;;;5.70;99.90;;;;;;5022189;28;20046;-73
2023/03/04 07:40:22;;;;;;;0.82;0.20;;;5.80;99.90;;;;;;5025796;28;20120;-73
2023/03/04 07:42:53;;;;;;;1.55;0.30;;;5.80;99.90;;;;;;5042146;28;20041;-72
2023/03/04 07:45:19;;;;;;;0.45;0.25;;;5.80;99.90;;;;;;5013380;28;20128;-73
2023/03/04 07:47:45;;;;;;;1.38;0.30;;;5.80;99.90;;;;;;5025053;28;20037;-73
2023/03/04 07:50:11;;;;;;;1.42;0.38;;;5.90;99.90;;;;;;5052242;28;20494;-73
2023/03/04 07:52:42;;;;;;;2.13;0.10;;;5.90;99.90;;;;;;5020904;28;20439;-72
2023/03/04 07:55:09;;;;;;;2.45;0.43;;;5.90;99.90;;;;;;5046999;28;20034;-72
2023/03/04 07:57:38;;;;;;;2.13;0.22;;;5.90;99.90;;;;;;5020775;28;20049;-72
2023/03/04 08:00:04;;;;;;;1.48;0.40;;;6.00;99.90;;;;;;5056225;28;20046;-73
2023/03/04 08:02:29;;;;;;;1.65;0.25;;;6.00;99.90;;;;;;5021293;28;20044;-72
2023/03/04 08:04:55;;;;;;;2.05;0.47;;;5.90;99.90;;;;;;5018839;28;20410;-73
2023/03/04 08:07:21;;;;;;;0.85;0.30;;;5.90;99.90;;;;;;5005574;28;20025;-72
2023/03/04 08:09:47;;;;;;;0.40;0.17;;;5.90;99.90;;;;;;5022133;28;20115;-72
2023/03/04 08:12:13;;;;;;;0.93;0.25;;;5.90;99.90;;;;;;5023604;28;20041;-72
2023/03/04 08:14:39;;;;;;;0.10;0.10;;;5.80;99.90;;;;;;5021796;28;20033;-73
2023/03/04 08:17:04;;;;;;;2.10;0.35;;;5.90;99.90;;;;;;5021077;28;20071;-73
2023/03/04 08:19:30;;;;;;;0.30;0.10;;;5.90;99.90;;;;;;5021025;28;20035;-73
2023/03/04 08:21:55;;;;;;;1.63;0.30;;;5.90;99.90;;;;;;5054325;28;20092;-73
2023/03/04 08:24:21;;;;;;;1.10;0.28;;;5.90;99.90;;;;;;5002595;28;20037;-73
2023/03/04 08:26:49;;;;;;;0.38;0.17;;;5.90;99.90;;;;;;5055487;28;20036;-73
2023/03/04 08:29:20;;;;;;;0.10;0.00;;;5.90;99.90;;;;;;5049518;28;20059;-77
2023/03/04 08:31:46;;;;;;;1.17;0.28;;;6.00;99.90;;;;;;5023298;28;20092;-72
2023/03/04 08:34:13;;;;;;;0.43;0.20;;;6.00;99.90;;;;;;5018979;28;20056;-72
2023/03/04 08:36:41;;;;;;;3.33;0.40;;;6.00;99.90;;;;;;5032662;28;20043;-73
2023/03/04 08:39:08;;;;;;;1.95;0.30;;;6.10;99.90;;;;;;5048218;28;20068;-73
2023/03/04 08:41:34;;;;;;;2.92;0.38;;;6.10;99.90;;;;;;5025435;28;20037;-74
2023/03/04 08:44:00;;;;;;;0.20;0.10;;;6.10;99.90;;;;;;5042997;28;20029;-73
2023/03/04 08:46:26;;;;;;;0.70;0.38;;;6.10;99.90;;;;;;5043963;28;20446;-73
2023/03/04 08:48:51;;;;;;;1.40;0.30;;;6.10;99.90;;;;;;5026193;28;20050;-73
2023/03/04 08:51:17;;;;;;;1.50;0.82;;;6.10;99.90;;;;;;5041520;28;20419;-73
2023/03/04 08:53:43;;;;;;;3.45;0.60;;;6.00;99.90;;;;;;5008561;28;20105;-73
2023/03/04 08:56:10;;;;;;;1.33;0.35;;;6.00;99.90;;;;;;5047722;28;20490;-74
2023/03/04 08:58:36;;;;;;;4.53;0.80;;;6.00;99.90;;;;;;5027139;28;20438;-74
2023/03/04 09:01:02;;;;;;;2.47;0.50;;;5.90;99.90;;;;;;5026442;28;20095;-73
2023/03/04 09:03:28;;;;;;;2.13;0.70;;;6.00;99.90;;;;;;5061312;28;20034;-73
2023/03/04 09:05:54;;;;;;;3.22;0.73;;;6.00;99.90;;;;;;5026817;28;20095;-73
2023/03/04 09:08:19;;;;;;;3.10;0.40;;;6.00;99.90;;;;;;5044770;28;20034;-73
2023/03/04 09:10:46;;;;;;;2.75;0.93;;;6.00;99.90;;;;;;5043180;28;20044;-73
2023/03/04 09:13:15;;;;;;;4.32;0.63;;;6.10;99.90;;;;;;5044898;28;20503;-74
2023/03/04 09:15:48;;;;;;;4.68;0.60;;;6.10;99.90;;;;;;5024121;28;20045;-74
2023/03/04 09:18:14;;;;;;;1.58;0.80;;;6.10;99.90;;;;;;5049150;28;20044;-73
2023/03/04 09:20:40;;;;;;;5.22;0.52;;;6.10;99.90;;;;;;5056044;28;20129;-73
2023/03/04 09:23:05;;;;;;;6.68;0.90;;;6.10;99.90;;;;;;5018962;28;20562;-73
2023/03/04 09:25:31;;;;;;;2.88;0.40;;;6.10;99.90;;;;;;5010845;28;20120;-73
2023/03/04 09:27:57;;;;;;;2.72;0.57;;;6.20;99.90;;;;;;5052647;28;20068;-73
2023/03/04 09:30:23;;;;;;;1.98;0.55;;;6.20;99.90;;;;;;5022017;28;20034;-73
2023/03/04 09:32:48;;;;;;;4.63;1.23;;;6.20;99.90;;;;;;5021758;28;20124;-73
2023/03/04 09:35:14;;;;;;;4.20;0.55;;;6.10;99.90;;;;;;5020549;28;20038;-73
2023/03/04 09:37:39;;;;;;;3.50;0.60;;;6.10;99.90;;;;;;5025438;28;20401;-73
2023/03/04 09:40:07;;;;;;;2.53;0.52;;;6.10;99.90;;;;;;5005445;28;20029;-73
2023/03/04 09:42:36;;;;;;;2.03;0.45;;;6.10;99.90;;;;;;5025281;28;20523;-73
2023/03/04 09:45:05;;;;;;;2.10;0.40;;;6.10;99.90;;;;;;5039775;28;20044;-73
2023/03/04 09:47:34;;;;;;;1.33;0.35;;;6.10;99.90;;;;;;5058828;28;20033;-73
2023/03/04 09:50:05;;;;;;;2.53;0.52;;;6.20;99.90;;;;;;5023759;28;20448;-73
2023/03/04 09:52:52;;;;;;;2.13;0.90;;;6.20;99.90;;;;;;5022901;28;20073;-71
2023/03/04 09:55:33;;;;;;;3.08;0.70;;;6.20;99.90;;;;;;5034847;28;20046;-73
2023/03/04 09:58:21;;;;;;;4.38;0.50;;;6.30;99.90;;;;;;5021318;28;20437;-73
2023/03/04 10:00:55;;;;;;;4.53;0.60;;;6.30;99.90;;;;;;5037568;28;20128;-73
2023/03/04 10:03:26;;;;;;;2.58;0.88;;;6.30;99.90;;;;;;5002013;28;20033;-73
2023/03/04 10:06:08;;;;;;;3.50;0.63;;;6.30;99.90;;;;;;5054349;28;20120;-73
2023/03/04 10:08:45;;;;;;;5.97;0.50;;;6.40;99.90;;;;;;5055420;28;20053;-73
2023/03/04 10:11:22;;;;;;;4.72;0.68;;;6.40;99.90;;;;;;5025075;28;20530;-73
2023/03/04 10:14:14;;;;;;;2.75;0.85;;;6.40;99.90;;;;;;5022771;28;20048;-73
2023/03/04 10:16:55;;;;;;;6.97;1.88;;;6.50;99.90;;;;;;5059586;28;20056;-73
2023/03/04 10:19:47;;;;;;;1.75;0.40;;;6.50;99.90;;;;;;5051574;28;20491;-73
2023/03/04 10:22:34;;;;;;;2.72;0.57;;;6.40;99.90;;;;;;5053226;28;20025;-73
2023/03/04 10:25:15;;;;;;;4.20;0.50;;;6.40;99.90;;;;;;5056182;28;20662;-73
2023/03/04 10:27:47;;;;;;;1.30;0.43;;;6.40;99.90;;;;;;5040705;28;20091;-73
2023/03/04 10:30:35;;;;;;;1.27;0.98;;;6.40;99.90;;;;;;5025679;28;20561;-73
2023/03/04 10:33:13;;;;;;;3.08;0.80;;;6.40;99.90;;;;;;5036157;28;20045;-73
2023/03/04 10:35:42;;;;;;;0.98;0.32;;;6.50;99.90;;;;;;5024094;28;20128;-73
2023/03/04 10:38:11;;;;;;;1.67;0.20;;;6.50;99.90;;;;;;5023131;28;20040;-73
2023/03/04 10:40:40;;;;;;;1.88;0.30;;;6.50;99.90;;;;;;5009524;28;20118;-73
2023/03/04 10:43:16;;;;;;;2.38;0.20;;;6.60;99.90;;;;;;5020056;28;20119;-73
2023/03/04 10:45:43;;;;;;;1.83;0.50;;;6.60;99.90;;;;;;5060095;28;20049;-73
2023/03/04 10:48:22;;;;;;;2.05;0.20;;;6.60;99.90;;;;;;5037870;28;20053;-73
2023/03/04 10:50:47;;;;;;;3.35;0.30;;;6.70;99.90;;;;;;5025469;28;20041;-73
2023/03/04 10:53:38;;;;;;;2.90;0.80;;;6.70;99.90;;;;;;5019761;28;20406;-73
2023/03/04 10:56:27;;;;;;;8.48;0.75;;;6.70;99.90;;;;;;5048501;28;20428;-73
2023/03/04 10:58:52;;;;;;;1.10;0.43;;;6.70;99.90;;;;;;5021883;28;20041;-73
2023/03/04 11:01:24;;;;;;;3.08;0.80;;;6.60;99.90;;;;;;5018503;28;20091;-73
2023/03/04 11:03:50;;;;;;;2.63;0.57;;;6.60;99.90;;;;;;5055419;28;20045;-74
2023/03/04 11:06:19;;;;;;;16.05;0.75;;;6.60;99.90;;;;;;5056371;28;20045;-73
2023/03/04 11:08:54;;;;;;;4.25;0.63;;;6.60;99.90;;;;;;5020507;28;20490;-73
2023/03/04 11:11:24;;;;;;;12.05;0.70;;;6.60;99.90;;;;;;5014172;28;20038;-76
2023/03/04 11:14:00;;;;;;;5.53;0.57;;;6.60;99.90;;;;;;5053549;28;20065;-73
2023/03/04 11:16:29;;;;;;;2.47;0.68;;;6.60;99.90;;;;;;5022534;28;20139;-73
2023/03/04 11:19:05;;;;;;;6.00;1.02;;;6.60;99.90;;;;;;5041479;28;20030;-73
2023/03/04 11:21:35;;;;;;;2.08;0.43;;;6.60;99.90;;;;;;5019372;28;20053;-73
2023/03/04 11:24:05;;;;;;;4.00;1.00;;;6.60;99.90;;;;;;5040286;28;20033;-73
2023/03/04 11:26:47;;;;;;;6.15;0.80;;;6.60;99.90;;;;;;5021311;28;20033;-73
2023/03/04 11:29:29;;;;;;;3.88;0.80;;;6.60;99.90;;;;;;5054858;28;20076;-73
2023/03/04 11:32:01;;;;;;;5.13;0.73;;;6.70;99.90;;;;;;5051402;28;20045;-73
2023/03/04 11:34:32;;;;;;;2.20;0.35;;;6.70;99.90;;;;;;5018908;28;20041;-73
2023/03/04 11:37:04;;;;;;;6.30;0.85;;;6.70;99.90;;;;;;5027463;28;20076;-73
2023/03/04 11:39:46;;;;;;;2.15;0.93;;;6.80;99.90;;;;;;5039592;28;20396;-73
2023/03/04 11:42:32;;;;;;;3.40;0.40;;;6.70;99.90;;;;;;5058074;28;20029;-73
2023/03/04 11:44:58;;;;;;;3.67;0.85;;;6.80;99.90;;;;;;5024721;28;20426;-73
2023/03/04 11:47:53;;;;;;;1.85;1.00;;;6.80;99.90;;;;;;5025783;28;20034;-73
2023/03/04 11:50:46;;;;;;;2.00;0.93;;;6.80;99.90;;;;;;5052852;28;20147;-73
2023/03/04 11:53:20;;;;;;;2.60;0.75;;;6.80;99.90;;;;;;5056792;28;20044;-73
2023/03/04 11:55:50;;;;;;;3.30;1.05;;;6.80;99.90;;;;;;5024730;28;20119;-73
2023/03/04 11:58:34;;;;;;;10.18;0.90;;;6.90;99.90;;;;;;5020805;28;20044;-73
2023/03/04 12:01:40;;;;;;;1.05;0.30;;;6.90;99.90;;;;;;5020214;28;20041;-73
2023/03/04 12:04:41;;;;;;;2.30;0.98;;;6.90;99.90;;;;;;5020058;28;20071;-73
2023/03/04 12:07:40;;;;;;;1.23;0.63;;;6.90;99.90;;;;;;5042863;28;20045;-75
2023/03/04 12:10:43;;;;;;;3.03;0.30;;;6.90;99.90;;;;;;5055167;28;20034;-73
2023/03/04 12:13:30;;;;;;;4.43;0.50;;;6.90;99.90;;;;;;5023592;28;20049;-73
2023/03/04 12:16:14;;;;;;;3.55;0.75;;;7.00;99.90;;;;;;5022845;28;20041;-73
2023/03/04 12:18:51;;;;;;;2.33;0.40;;;7.00;99.90;;;;;;5022545;28;20130;-73
2023/03/04 12:21:50;;;;;;;3.50;0.60;;;7.00;99.90;;;;;;5053341;28;20414;-73
2023/03/04 12:24:34;;;;;;;3.72;0.73;;;7.00;99.90;;;;;;5019525;28;20038;-73
2023/03/04 12:27:21;;;;;;;1.17;0.60;;;6.90;99.90;;;;;;5048564;28;20041;-73
2023/03/04 12:29:52;;;;;;;2.30;0.63;;;6.90;99.90;;;;;;5016499;28;20053;-73
2023/03/04 12:32:27;;;;;;;4.82;0.80;;;6.90;99.90;;;;;;5006328;28;20073;-73
2023/03/04 12:35:22;;;;;;;1.13;0.52;;;6.90;99.90;;;;;;5049875;28;20046;-73
2023/03/04 12:38:20;;;;;;;1.25;0.28;;;6.90;99.90;;;;;;5020535;28;20052;-73
2023/03/04 12:40:54;;;;;;;2.88;0.45;;;6.80;99.90;;;;;;5003042;28;20264;-73
2023/03/04 12:43:23;;;;;;;12.10;0.93;;;6.80;99.90;;;;;;5017315;28;20056;-73
2023/03/04 12:46:15;;;;;;;6.00;0.40;;;6.80;99.90;;;;;;5055499;28;20401;-73
2023/03/04 12:48:45;;;;;;;1.50;0.40;;;6.90;99.90;;;;;;5021777;28;20041;-73
2023/03/04 12:51:42;;;;;;;3.10;0.40;;;6.90;99.90;;;;;;5038553;28;20057;-73
2023/03/04 12:54:43;;;;;;;3.35;0.50;;;6.90;99.90;;;;;;5034039;28;20037;-73
2023/03/04 12:57:14;;;;;;;2.58;0.52;;;7.00;99.90;;;;;;5014859;28;20041;-73
2023/03/04 13:00:12;;;;;;;3.53;0.45;;;7.00;99.90;;;;;;5023428;28;20053;-73
2023/03/04 13:03:03;;;;;;;3.55;0.80;;;7.00;99.90;;;;;;5054022;28;20044;-73
2023/03/04 13:05:41;;;;;;;1.35;0.43;;;7.10;99.90;;;;;;5022090;28;20044;-73
2023/03/04 13:08:30;;;;;;;3.30;0.57;;;7.00;99.90;;;;;;5052032;28;20112;-73
2023/03/04 13:11:25;;;;;;;3.58;0.45;;;6.90;99.90;;;;;;5024009;28;20045;-73